TED weather

Thisted Airport
Thisted, North Jutland, Denmark

Public forecast

Using degrees Celsius for public forecast. Weather courtesy of forecast.io.

Closest aviation weather report (METAR) to Thisted Airport

Closest report is Aalborg Airport, 37.4 nm (69.2 km) E. Retrieved 2019/10/20 04:20 UTC (13 minutes ago):

EKYT 200420Z AUTO 17006KT 9999 NCD 08/08 Q1005

Closest aviation forecast (TAF) to Thisted Airport

Closest forecast is Aalborg Airport, 37.4 nm (69.2 km) E. Retrieved 2019-10-20 03:31 UTC (1 hour ago):

TAF EKYT 200204Z 2003/2103 17005KT 9999 SCT020 BKN050 TEMPO 2003/2008 0300 -SHRA BCFG BKN003 SCT020CB TEMPO 2008/2016 7000 -SHRA BKN012 SCT020CB BECMG 2010/2013 22006KT BECMG 2017/2020 VRB03KT 4000 BR TEMPO 2020/2103 0200 BCFG BKN001